sensor_id;sensor_type;location;lat;lon;timestamp;P1;durP1;ratioP1;P2;durP2;ratioP2
56083;SDS011;41958;52.416;13.428;2022-11-15T00:01:41;58.30;;;25.98;;
56083;SDS011;41958;52.416;13.428;2022-11-15T00:04:06;54.28;;;25.10;;
56083;SDS011;41958;52.416;13.428;2022-11-15T00:06:32;52.88;;;24.55;;
56083;SDS011;41958;52.416;13.428;2022-11-15T00:08:58;51.75;;;25.27;;
56083;SDS011;41958;52.416;13.428;2022-11-15T00:11:24;54.50;;;25.38;;
56083;SDS011;41958;52.416;13.428;2022-11-15T00:13:50;54.45;;;25.15;;
56083;SDS011;41958;52.416;13.428;2022-11-15T00:16:15;52.95;;;24.98;;
56083;SDS011;41958;52.416;13.428;2022-11-15T00:18:40;54.20;;;24.73;;
56083;SDS011;41958;52.416;13.428;2022-11-15T00:21:07;57.92;;;26.67;;
56083;SDS011;41958;52.416;13.428;2022-11-15T00:23:34;60.88;;;26.20;;
56083;SDS011;41958;52.416;13.428;2022-11-15T00:26:00;55.42;;;25.33;;
56083;SDS011;41958;52.416;13.428;2022-11-15T00:28:25;51.05;;;23.08;;
56083;SDS011;41958;52.416;13.428;2022-11-15T00:30:51;47.70;;;24.60;;
56083;SDS011;41958;52.416;13.428;2022-11-15T00:33:16;52.17;;;25.05;;
56083;SDS011;41958;52.416;13.428;2022-11-15T00:35:42;46.95;;;23.98;;
56083;SDS011;41958;52.416;13.428;2022-11-15T00:38:07;52.92;;;24.88;;
56083;SDS011;41958;52.416;13.428;2022-11-15T00:40:33;45.80;;;23.27;;
56083;SDS011;41958;52.416;13.428;2022-11-15T00:42:58;46.63;;;22.85;;
56083;SDS011;41958;52.416;13.428;2022-11-15T00:45:23;51.53;;;24.50;;
56083;SDS011;41958;52.416;13.428;2022-11-15T00:47:49;53.58;;;24.60;;
56083;SDS011;41958;52.416;13.428;2022-11-15T00:50:15;49.15;;;22.83;;
56083;SDS011;41958;52.416;13.428;2022-11-15T00:52:41;50.00;;;22.50;;
56083;SDS011;41958;52.416;13.428;2022-11-15T00:55:06;48.75;;;23.05;;
56083;SDS011;41958;52.416;13.428;2022-11-15T00:57:33;45.85;;;21.65;;
56083;SDS011;41958;52.416;13.428;2022-11-15T00:59:58;47.67;;;23.38;;
56083;SDS011;41958;52.416;13.428;2022-11-15T01:02:23;50.13;;;24.23;;
56083;SDS011;41958;52.416;13.428;2022-11-15T01:04:48;47.88;;;22.92;;
56083;SDS011;41958;52.416;13.428;2022-11-15T01:07:14;49.88;;;22.55;;
56083;SDS011;41958;52.416;13.428;2022-11-15T01:09:39;45.45;;;21.98;;
56083;SDS011;41958;52.416;13.428;2022-11-15T01:12:04;44.85;;;22.17;;
56083;SDS011;41958;52.416;13.428;2022-11-15T01:14:30;49.30;;;23.75;;
56083;SDS011;41958;52.416;13.428;2022-11-15T01:16:55;52.70;;;23.77;;
56083;SDS011;41958;52.416;13.428;2022-11-15T01:19:20;47.75;;;23.08;;
56083;SDS011;41958;52.416;13.428;2022-11-15T01:21:48;49.38;;;23.42;;
56083;SDS011;41958;52.416;13.428;2022-11-15T01:24:14;52.53;;;23.98;;
56083;SDS011;41958;52.416;13.428;2022-11-15T01:26:40;51.45;;;23.65;;
56083;SDS011;41958;52.416;13.428;2022-11-15T01:29:05;47.22;;;22.75;;
56083;SDS011;41958;52.416;13.428;2022-11-15T01:31:30;53.05;;;23.23;;
56083;SDS011;41958;52.416;13.428;2022-11-15T01:33:55;46.20;;;23.05;;
56083;SDS011;41958;52.416;13.428;2022-11-15T01:36:21;52.17;;;24.45;;
56083;SDS011;41958;52.416;13.428;2022-11-15T01:38:47;48.55;;;22.75;;
56083;SDS011;41958;52.416;13.428;2022-11-15T01:41:19;46.55;;;22.17;;
56083;SDS011;41958;52.416;13.428;2022-11-15T01:43:48;49.47;;;22.30;;
56083;SDS011;41958;52.416;13.428;2022-11-15T01:46:34;47.47;;;22.23;;
56083;SDS011;41958;52.416;13.428;2022-11-15T01:49:02;51.42;;;21.83;;
56083;SDS011;41958;52.416;13.428;2022-11-15T01:51:31;46.22;;;22.27;;
56083;SDS011;41958;52.416;13.428;2022-11-15T01:53:59;45.67;;;22.23;;
56083;SDS011;41958;52.416;13.428;2022-11-15T01:56:40;50.20;;;22.90;;
56083;SDS011;41958;52.416;13.428;2022-11-15T01:59:10;53.08;;;25.10;;
56083;SDS011;41958;52.416;13.428;2022-11-15T02:01:36;51.65;;;24.55;;
56083;SDS011;41958;52.416;13.428;2022-11-15T02:04:04;51.95;;;24.10;;
56083;SDS011;41958;52.416;13.428;2022-11-15T02:06:35;59.53;;;25.83;;
56083;SDS011;41958;52.416;13.428;2022-11-15T02:09:01;54.33;;;24.65;;
56083;SDS011;41958;52.416;13.428;2022-11-15T02:11:26;57.42;;;25.00;;
56083;SDS011;41958;52.416;13.428;2022-11-15T02:13:52;55.45;;;24.80;;
56083;SDS011;41958;52.416;13.428;2022-11-15T02:16:24;55.38;;;25.50;;
56083;SDS011;41958;52.416;13.428;2022-11-15T02:19:06;62.90;;;26.52;;
56083;SDS011;41958;52.416;13.428;2022-11-15T02:21:49;59.08;;;26.63;;
56083;SDS011;41958;52.416;13.428;2022-11-15T02:30:20;57.15;;;25.42;;
56083;SDS011;41958;52.416;13.428;2022-11-15T02:41:07;63.28;;;26.00;;
56083;SDS011;41958;52.416;13.428;2022-11-15T02:43:40;57.35;;;27.02;;
56083;SDS011;41958;52.416;13.428;2022-11-15T02:46:36;55.45;;;25.10;;
56083;SDS011;41958;52.416;13.428;2022-11-15T02:49:24;58.47;;;24.80;;
56083;SDS011;41958;52.416;13.428;2022-11-15T02:51:54;59.95;;;26.95;;
56083;SDS011;41958;52.416;13.428;2022-11-15T02:54:21;57.03;;;25.13;;
56083;SDS011;41958;52.416;13.428;2022-11-15T02:56:49;59.63;;;26.65;;
56083;SDS011;41958;52.416;13.428;2022-11-15T03:10:25;51.25;;;22.95;;
56083;SDS011;41958;52.416;13.428;2022-11-15T03:13:11;47.80;;;23.55;;
56083;SDS011;41958;52.416;13.428;2022-11-15T03:16:24;48.72;;;23.08;;
56083;SDS011;41958;52.416;13.428;2022-11-15T03:18:51;49.28;;;22.30;;
56083;SDS011;41958;52.416;13.428;2022-11-15T03:21:20;50.95;;;23.50;;
56083;SDS011;41958;52.416;13.428;2022-11-15T03:23:48;54.97;;;24.08;;
56083;SDS011;41958;52.416;13.428;2022-11-15T03:26:17;48.92;;;22.40;;
56083;SDS011;41958;52.416;13.428;2022-11-15T03:28:48;48.33;;;23.05;;
56083;SDS011;41958;52.416;13.428;2022-11-15T03:31:17;45.58;;;21.40;;
56083;SDS011;41958;52.416;13.428;2022-11-15T03:34:05;46.08;;;21.42;;
56083;SDS011;41958;52.416;13.428;2022-11-15T03:36:35;53.60;;;24.20;;
56083;SDS011;41958;52.416;13.428;2022-11-15T03:39:04;46.03;;;23.45;;
56083;SDS011;41958;52.416;13.428;2022-11-15T03:41:35;54.35;;;25.25;;
56083;SDS011;41958;52.416;13.428;2022-11-15T03:47:09;52.53;;;24.65;;
56083;SDS011;41958;52.416;13.428;2022-11-15T03:49:44;52.60;;;24.80;;
56083;SDS011;41958;52.416;13.428;2022-11-15T03:52:17;47.78;;;22.98;;
56083;SDS011;41958;52.416;13.428;2022-11-15T03:54:47;51.33;;;22.55;;
56083;SDS011;41958;52.416;13.428;2022-11-15T03:57:14;47.97;;;21.98;;
56083;SDS011;41958;52.416;13.428;2022-11-15T03:59:39;50.97;;;23.25;;
56083;SDS011;41958;52.416;13.428;2022-11-15T04:02:04;55.38;;;23.50;;
56083;SDS011;41958;52.416;13.428;2022-11-15T04:04:30;49.75;;;22.30;;
56083;SDS011;41958;52.416;13.428;2022-11-15T04:06:55;50.72;;;24.10;;
56083;SDS011;41958;52.416;13.428;2022-11-15T04:09:20;47.78;;;21.92;;
56083;SDS011;41958;52.416;13.428;2022-11-15T04:11:45;48.63;;;22.55;;
56083;SDS011;41958;52.416;13.428;2022-11-15T04:14:11;50.17;;;23.83;;
56083;SDS011;41958;52.416;13.428;2022-11-15T04:16:36;52.67;;;23.45;;
56083;SDS011;41958;52.416;13.428;2022-11-15T04:19:01;52.67;;;23.38;;
56083;SDS011;41958;52.416;13.428;2022-11-15T04:21:45;47.78;;;21.50;;
56083;SDS011;41958;52.416;13.428;2022-11-15T04:24:29;51.88;;;21.77;;
56083;SDS011;41958;52.416;13.428;2022-11-15T04:26:54;56.38;;;25.10;;
56083;SDS011;41958;52.416;13.428;2022-11-15T04:29:19;52.85;;;24.48;;
56083;SDS011;41958;52.416;13.428;2022-11-15T04:32:03;55.72;;;24.45;;
56083;SDS011;41958;52.416;13.428;2022-11-15T04:34:30;59.75;;;24.92;;
56083;SDS011;41958;52.416;13.428;2022-11-15T04:36:55;53.13;;;23.48;;
56083;SDS011;41958;52.416;13.428;2022-11-15T04:39:40;57.45;;;24.50;;
56083;SDS011;41958;52.416;13.428;2022-11-15T04:42:06;54.85;;;24.80;;
56083;SDS011;41958;52.416;13.428;2022-11-15T04:44:31;47.15;;;22.17;;
56083;SDS011;41958;52.416;13.428;2022-11-15T04:46:56;53.83;;;23.70;;
56083;SDS011;41958;52.416;13.428;2022-11-15T04:49:22;50.83;;;23.95;;
56083;SDS011;41958;52.416;13.428;2022-11-15T04:51:47;51.22;;;22.40;;
56083;SDS011;41958;52.416;13.428;2022-11-15T04:54:12;55.47;;;24.80;;
56083;SDS011;41958;52.416;13.428;2022-11-15T04:56:38;53.22;;;24.02;;
56083;SDS011;41958;52.416;13.428;2022-11-15T04:59:03;52.65;;;22.90;;
56083;SDS011;41958;52.416;13.428;2022-11-15T05:01:28;53.75;;;23.27;;
56083;SDS011;41958;52.416;13.428;2022-11-15T05:03:53;53.70;;;23.98;;
56083;SDS011;41958;52.416;13.428;2022-11-15T05:06:37;57.35;;;24.65;;
56083;SDS011;41958;52.416;13.428;2022-11-15T05:09:03;55.80;;;23.98;;
56083;SDS011;41958;52.416;13.428;2022-11-15T05:11:28;54.88;;;23.45;;
56083;SDS011;41958;52.416;13.428;2022-11-15T05:13:53;52.25;;;24.25;;
56083;SDS011;41958;52.416;13.428;2022-11-15T05:16:19;50.08;;;21.92;;
56083;SDS011;41958;52.416;13.428;2022-11-15T05:18:44;46.55;;;22.10;;
56083;SDS011;41958;52.416;13.428;2022-11-15T05:21:10;49.53;;;22.40;;
56083;SDS011;41958;52.416;13.428;2022-11-15T05:23:37;40.78;;;20.40;;
56083;SDS011;41958;52.416;13.428;2022-11-15T05:26:03;48.55;;;21.05;;
56083;SDS011;41958;52.416;13.428;2022-11-15T05:28:30;43.45;;;20.02;;
56083;SDS011;41958;52.416;13.428;2022-11-15T05:31:02;42.63;;;20.17;;
56083;SDS011;41958;52.416;13.428;2022-11-15T05:33:28;44.47;;;20.10;;
56083;SDS011;41958;52.416;13.428;2022-11-15T05:36:00;39.72;;;19.58;;
56083;SDS011;41958;52.416;13.428;2022-11-15T05:38:39;43.08;;;19.52;;
56083;SDS011;41958;52.416;13.428;2022-11-15T05:41:04;41.08;;;20.00;;
56083;SDS011;41958;52.416;13.428;2022-11-15T05:43:31;39.90;;;19.10;;
56083;SDS011;41958;52.416;13.428;2022-11-15T05:45:59;39.30;;;19.02;;
56083;SDS011;41958;52.416;13.428;2022-11-15T05:48:26;37.58;;;18.50;;
56083;SDS011;41958;52.416;13.428;2022-11-15T05:50:51;34.75;;;18.80;;
56083;SDS011;41958;52.416;13.428;2022-11-15T05:53:18;39.53;;;17.50;;
56083;SDS011;41958;52.416;13.428;2022-11-15T05:55:46;37.95;;;17.23;;
56083;SDS011;41958;52.416;13.428;2022-11-15T05:58:12;36.95;;;18.48;;
56083;SDS011;41958;52.416;13.428;2022-11-15T06:00:37;43.63;;;19.60;;
56083;SDS011;41958;52.416;13.428;2022-11-15T06:03:02;45.03;;;20.17;;
56083;SDS011;41958;52.416;13.428;2022-11-15T06:05:28;42.55;;;21.50;;
56083;SDS011;41958;52.416;13.428;2022-11-15T06:07:56;43.47;;;19.10;;
56083;SDS011;41958;52.416;13.428;2022-11-15T06:10:23;39.90;;;18.38;;
56083;SDS011;41958;52.416;13.428;2022-11-15T06:12:55;41.15;;;18.65;;
56083;SDS011;41958;52.416;13.428;2022-11-15T06:15:24;42.78;;;20.80;;
56083;SDS011;41958;52.416;13.428;2022-11-15T06:17:49;48.67;;;20.95;;
56083;SDS011;41958;52.416;13.428;2022-11-15T06:20:15;47.45;;;22.08;;
56083;SDS011;41958;52.416;13.428;2022-11-15T06:22:40;53.22;;;22.52;;
56083;SDS011;41958;52.416;13.428;2022-11-15T06:25:05;52.92;;;23.45;;
56083;SDS011;41958;52.416;13.428;2022-11-15T06:27:31;57.50;;;24.70;;
56083;SDS011;41958;52.416;13.428;2022-11-15T06:29:56;49.55;;;22.98;;
56083;SDS011;41958;52.416;13.428;2022-11-15T06:32:21;53.10;;;23.20;;
56083;SDS011;41958;52.416;13.428;2022-11-15T06:34:46;53.30;;;22.92;;
56083;SDS011;41958;52.416;13.428;2022-11-15T06:37:12;62.63;;;24.83;;
56083;SDS011;41958;52.416;13.428;2022-11-15T06:39:37;61.42;;;26.17;;
56083;SDS011;41958;52.416;13.428;2022-11-15T06:42:02;65.13;;;26.08;;
56083;SDS011;41958;52.416;13.428;2022-11-15T06:44:27;62.97;;;27.40;;
56083;SDS011;41958;52.416;13.428;2022-11-15T06:46:53;58.67;;;24.73;;
56083;SDS011;41958;52.416;13.428;2022-11-15T06:49:18;54.67;;;24.00;;
56083;SDS011;41958;52.416;13.428;2022-11-15T06:51:44;56.95;;;24.67;;
56083;SDS011;41958;52.416;13.428;2022-11-15T06:54:09;59.92;;;24.95;;
56083;SDS011;41958;52.416;13.428;2022-11-15T06:56:34;58.17;;;24.80;;
56083;SDS011;41958;52.416;13.428;2022-11-15T06:58:59;54.30;;;23.63;;
56083;SDS011;41958;52.416;13.428;2022-11-15T07:01:25;49.83;;;22.92;;
56083;SDS011;41958;52.416;13.428;2022-11-15T07:03:50;51.95;;;22.60;;
56083;SDS011;41958;52.416;13.428;2022-11-15T07:06:15;52.85;;;23.08;;
56083;SDS011;41958;52.416;13.428;2022-11-15T07:08:40;48.20;;;22.17;;
56083;SDS011;41958;52.416;13.428;2022-11-15T07:11:07;52.38;;;22.65;;
56083;SDS011;41958;52.416;13.428;2022-11-15T07:13:33;55.47;;;23.38;;
56083;SDS011;41958;52.416;13.428;2022-11-15T07:16:07;55.55;;;22.95;;
56083;SDS011;41958;52.416;13.428;2022-11-15T07:18:35;55.40;;;24.42;;
56083;SDS011;41958;52.416;13.428;2022-11-15T07:21:02;52.67;;;24.08;;
56083;SDS011;41958;52.416;13.428;2022-11-15T07:23:28;56.20;;;23.77;;
56083;SDS011;41958;52.416;13.428;2022-11-15T07:25:55;51.58;;;24.17;;
56083;SDS011;41958;52.416;13.428;2022-11-15T07:28:22;51.92;;;22.88;;
56083;SDS011;41958;52.416;13.428;2022-11-15T07:30:47;52.65;;;24.25;;
56083;SDS011;41958;52.416;13.428;2022-11-15T07:33:13;61.08;;;25.60;;
56083;SDS011;41958;52.416;13.428;2022-11-15T07:35:38;58.15;;;25.42;;
56083;SDS011;41958;52.416;13.428;2022-11-15T07:38:03;57.78;;;25.63;;
56083;SDS011;41958;52.416;13.428;2022-11-15T07:40:29;56.58;;;24.67;;
56083;SDS011;41958;52.416;13.428;2022-11-15T07:43:00;58.90;;;24.55;;
56083;SDS011;41958;52.416;13.428;2022-11-15T07:45:27;53.50;;;23.15;;
56083;SDS011;41958;52.416;13.428;2022-11-15T07:47:52;63.30;;;25.92;;
56083;SDS011;41958;52.416;13.428;2022-11-15T07:50:18;71.72;;;29.33;;
56083;SDS011;41958;52.416;13.428;2022-11-15T07:52:44;70.38;;;27.95;;
56083;SDS011;41958;52.416;13.428;2022-11-15T07:55:09;69.82;;;28.58;;
56083;SDS011;41958;52.416;13.428;2022-11-15T07:57:35;70.47;;;29.02;;
56083;SDS011;41958;52.416;13.428;2022-11-15T08:00:00;74.07;;;29.65;;
56083;SDS011;41958;52.416;13.428;2022-11-15T08:02:26;68.75;;;30.77;;
56083;SDS011;41958;52.416;13.428;2022-11-15T08:04:51;71.78;;;28.75;;
56083;SDS011;41958;52.416;13.428;2022-11-15T08:07:16;69.50;;;28.00;;
56083;SDS011;41958;52.416;13.428;2022-11-15T08:09:42;63.72;;;28.48;;
56083;SDS011;41958;52.416;13.428;2022-11-15T08:12:07;64.15;;;27.17;;
56083;SDS011;41958;52.416;13.428;2022-11-15T08:14:33;67.28;;;28.15;;
56083;SDS011;41958;52.416;13.428;2022-11-15T08:16:59;66.57;;;28.85;;
56083;SDS011;41958;52.416;13.428;2022-11-15T08:19:24;62.10;;;27.30;;
56083;SDS011;41958;52.416;13.428;2022-11-15T08:21:50;56.70;;;25.30;;
56083;SDS011;41958;52.416;13.428;2022-11-15T08:24:15;66.22;;;28.50;;
56083;SDS011;41958;52.416;13.428;2022-11-15T08:26:40;56.45;;;26.20;;
56083;SDS011;41958;52.416;13.428;2022-11-15T08:29:06;57.20;;;25.52;;
56083;SDS011;41958;52.416;13.428;2022-11-15T08:31:33;57.70;;;25.95;;
56083;SDS011;41958;52.416;13.428;2022-11-15T08:34:01;60.28;;;26.23;;
56083;SDS011;41958;52.416;13.428;2022-11-15T08:36:27;51.83;;;25.20;;
56083;SDS011;41958;52.416;13.428;2022-11-15T08:38:52;56.50;;;26.42;;
56083;SDS011;41958;52.416;13.428;2022-11-15T08:41:28;53.33;;;25.27;;
56083;SDS011;41958;52.416;13.428;2022-11-15T08:43:56;55.28;;;25.45;;
56083;SDS011;41958;52.416;13.428;2022-11-15T08:46:21;53.80;;;24.98;;
56083;SDS011;41958;52.416;13.428;2022-11-15T08:48:46;53.10;;;26.23;;
56083;SDS011;41958;52.416;13.428;2022-11-15T08:51:12;52.95;;;25.60;;
56083;SDS011;41958;52.416;13.428;2022-11-15T08:53:37;51.53;;;24.90;;
56083;SDS011;41958;52.416;13.428;2022-11-15T08:56:02;52.58;;;25.42;;
56083;SDS011;41958;52.416;13.428;2022-11-15T08:58:32;47.90;;;23.90;;
56083;SDS011;41958;52.416;13.428;2022-11-15T09:00:58;48.95;;;24.27;;
56083;SDS011;41958;52.416;13.428;2022-11-15T09:03:24;47.17;;;23.80;;
56083;SDS011;41958;52.416;13.428;2022-11-15T09:05:53;46.58;;;23.77;;
56083;SDS011;41958;52.416;13.428;2022-11-15T09:08:20;45.10;;;22.85;;
56083;SDS011;41958;52.416;13.428;2022-11-15T09:10:48;46.63;;;23.83;;
56083;SDS011;41958;52.416;13.428;2022-11-15T09:13:14;41.08;;;22.17;;
56083;SDS011;41958;52.416;13.428;2022-11-15T09:15:39;40.97;;;22.67;;
56083;SDS011;41958;52.416;13.428;2022-11-15T09:18:04;43.20;;;21.83;;
56083;SDS011;41958;52.416;13.428;2022-11-15T09:20:30;44.55;;;22.40;;
56083;SDS011;41958;52.416;13.428;2022-11-15T09:22:58;40.83;;;21.90;;
56083;SDS011;41958;52.416;13.428;2022-11-15T09:25:27;42.17;;;21.52;;
56083;SDS011;41958;52.416;13.428;2022-11-15T09:27:53;43.45;;;20.95;;
56083;SDS011;41958;52.416;13.428;2022-11-15T09:30:18;38.35;;;20.05;;
56083;SDS011;41958;52.416;13.428;2022-11-15T09:32:44;39.10;;;21.65;;
56083;SDS011;41958;52.416;13.428;2022-11-15T09:35:09;35.92;;;18.85;;
56083;SDS011;41958;52.416;13.428;2022-11-15T09:37:34;37.80;;;19.77;;
56083;SDS011;41958;52.416;13.428;2022-11-15T09:39:59;34.35;;;18.98;;
56083;SDS011;41958;52.416;13.428;2022-11-15T09:42:31;36.90;;;19.75;;
56083;SDS011;41958;52.416;13.428;2022-11-15T09:45:17;30.63;;;18.40;;
56083;SDS011;41958;52.416;13.428;2022-11-15T09:47:55;36.53;;;19.65;;
56083;SDS011;41958;52.416;13.428;2022-11-15T09:50:41;35.63;;;19.17;;
56083;SDS011;41958;52.416;13.428;2022-11-15T09:53:12;37.92;;;19.52;;
56083;SDS011;41958;52.416;13.428;2022-11-15T09:55:51;33.55;;;18.67;;
56083;SDS011;41958;52.416;13.428;2022-11-15T10:01:20;35.35;;;19.55;;
56083;SDS011;41958;52.416;13.428;2022-11-15T10:03:57;34.80;;;18.92;;
56083;SDS011;41958;52.416;13.428;2022-11-15T10:06:25;36.58;;;19.15;;
56083;SDS011;41958;52.416;13.428;2022-11-15T10:09:09;32.58;;;18.48;;
56083;SDS011;41958;52.416;13.428;2022-11-15T10:11:40;32.72;;;18.58;;
56083;SDS011;41958;52.416;13.428;2022-11-15T10:14:19;33.58;;;17.85;;
56083;SDS011;41958;52.416;13.428;2022-11-15T10:16:52;28.92;;;17.17;;
56083;SDS011;41958;52.416;13.428;2022-11-15T10:22:28;29.90;;;17.00;;
56083;SDS011;41958;52.416;13.428;2022-11-15T10:25:00;31.60;;;16.30;;
56083;SDS011;41958;52.416;13.428;2022-11-15T10:27:38;29.73;;;16.30;;
56083;SDS011;41958;52.416;13.428;2022-11-15T10:30:10;30.58;;;16.55;;
56083;SDS011;41958;52.416;13.428;2022-11-15T10:32:37;29.13;;;15.65;;
56083;SDS011;41958;52.416;13.428;2022-11-15T10:37:51;26.45;;;15.60;;
56083;SDS011;41958;52.416;13.428;2022-11-15T10:40:18;24.55;;;15.10;;
56083;SDS011;41958;52.416;13.428;2022-11-15T10:42:43;25.40;;;16.48;;
56083;SDS011;41958;52.416;13.428;2022-11-15T10:45:26;23.75;;;14.55;;
56083;SDS011;41958;52.416;13.428;2022-11-15T10:48:18;24.88;;;14.80;;
56083;SDS011;41958;52.416;13.428;2022-11-15T10:50:47;27.38;;;14.82;;
56083;SDS011;41958;52.416;13.428;2022-11-15T10:53:21;27.63;;;14.48;;
56083;SDS011;41958;52.416;13.428;2022-11-15T10:55:50;23.55;;;14.00;;
56083;SDS011;41958;52.416;13.428;2022-11-15T10:58:30;24.98;;;14.82;;
56083;SDS011;41958;52.416;13.428;2022-11-15T11:01:08;22.65;;;14.40;;
56083;SDS011;41958;52.416;13.428;2022-11-15T11:03:42;23.27;;;14.20;;
56083;SDS011;41958;52.416;13.428;2022-11-15T11:06:10;23.33;;;14.45;;
56083;SDS011;41958;52.416;13.428;2022-11-15T11:08:39;23.92;;;14.18;;
56083;SDS011;41958;52.416;13.428;2022-11-15T11:11:17;24.83;;;13.82;;
56083;SDS011;41958;52.416;13.428;2022-11-15T11:13:42;21.83;;;13.45;;
56083;SDS011;41958;52.416;13.428;2022-11-15T11:21:26;21.02;;;12.85;;
56083;SDS011;41958;52.416;13.428;2022-11-15T11:27:13;22.58;;;13.13;;
56083;SDS011;41958;52.416;13.428;2022-11-15T11:32:42;23.85;;;13.18;;
56083;SDS011;41958;52.416;13.428;2022-11-15T11:37:56;25.08;;;13.65;;
56083;SDS011;41958;52.416;13.428;2022-11-15T11:40:59;22.80;;;13.45;;
56083;SDS011;41958;52.416;13.428;2022-11-15T11:46:36;22.83;;;12.52;;
56083;SDS011;41958;52.416;13.428;2022-11-15T11:49:15;20.77;;;11.05;;
56083;SDS011;41958;52.416;13.428;2022-11-15T11:51:49;20.45;;;11.55;;
56083;SDS011;41958;52.416;13.428;2022-11-15T11:54:22;22.48;;;11.90;;
56083;SDS011;41958;52.416;13.428;2022-11-15T11:56:56;17.33;;;11.40;;
56083;SDS011;41958;52.416;13.428;2022-11-15T12:02:15;16.77;;;10.13;;
56083;SDS011;41958;52.416;13.428;2022-11-15T12:05:04;17.25;;;10.15;;
56083;SDS011;41958;52.416;13.428;2022-11-15T12:07:38;15.10;;;9.70;;
56083;SDS011;41958;52.416;13.428;2022-11-15T12:10:14;14.85;;;10.32;;
56083;SDS011;41958;52.416;13.428;2022-11-15T12:12:53;15.32;;;9.90;;
56083;SDS011;41958;52.416;13.428;2022-11-15T12:15:40;18.48;;;10.80;;
56083;SDS011;41958;52.416;13.428;2022-11-15T12:18:15;18.13;;;10.23;;
56083;SDS011;41958;52.416;13.428;2022-11-15T12:20:42;17.55;;;11.07;;
56083;SDS011;41958;52.416;13.428;2022-11-15T12:23:27;16.77;;;10.93;;
56083;SDS011;41958;52.416;13.428;2022-11-15T12:26:08;18.58;;;11.55;;
56083;SDS011;41958;52.416;13.428;2022-11-15T12:31:21;21.00;;;12.05;;
56083;SDS011;41958;52.416;13.428;2022-11-15T12:33:54;18.38;;;11.75;;
56083;SDS011;41958;52.416;13.428;2022-11-15T12:38:57;18.43;;;10.37;;
56083;SDS011;41958;52.416;13.428;2022-11-15T12:41:35;16.08;;;9.88;;
56083;SDS011;41958;52.416;13.428;2022-11-15T12:44:02;13.90;;;9.27;;
56083;SDS011;41958;52.416;13.428;2022-11-15T12:51:22;17.23;;;10.02;;
56083;SDS011;41958;52.416;13.428;2022-11-15T12:54:55;14.32;;;10.07;;
56083;SDS011;41958;52.416;13.428;2022-11-15T13:02:18;19.80;;;10.60;;
56083;SDS011;41958;52.416;13.428;2022-11-15T13:04:50;14.63;;;10.05;;
56083;SDS011;41958;52.416;13.428;2022-11-15T13:10:01;20.42;;;12.38;;
56083;SDS011;41958;52.416;13.428;2022-11-15T13:17:39;20.17;;;12.05;;
56083;SDS011;41958;52.416;13.428;2022-11-15T13:22:43;21.17;;;12.75;;
56083;SDS011;41958;52.416;13.428;2022-11-15T13:28:01;20.33;;;12.30;;
56083;SDS011;41958;52.416;13.428;2022-11-15T13:30:38;19.73;;;11.95;;
56083;SDS011;41958;52.416;13.428;2022-11-15T13:33:08;19.48;;;11.57;;
56083;SDS011;41958;52.416;13.428;2022-11-15T13:35:40;18.63;;;11.70;;
56083;SDS011;41958;52.416;13.428;2022-11-15T13:38:11;21.70;;;12.00;;
56083;SDS011;41958;52.416;13.428;2022-11-15T13:40:45;17.45;;;11.27;;
56083;SDS011;41958;52.416;13.428;2022-11-15T13:43:25;18.35;;;11.38;;
56083;SDS011;41958;52.416;13.428;2022-11-15T13:46:07;17.23;;;11.18;;
56083;SDS011;41958;52.416;13.428;2022-11-15T13:48:37;18.83;;;11.45;;
56083;SDS011;41958;52.416;13.428;2022-11-15T13:51:04;15.57;;;10.75;;
56083;SDS011;41958;52.416;13.428;2022-11-15T13:53:38;17.63;;;10.85;;
56083;SDS011;41958;52.416;13.428;2022-11-15T13:56:06;15.55;;;10.48;;
56083;SDS011;41958;52.416;13.428;2022-11-15T13:58:31;17.38;;;10.98;;
56083;SDS011;41958;52.416;13.428;2022-11-15T14:00:59;17.58;;;10.77;;
56083;SDS011;41958;52.416;13.428;2022-11-15T14:03:27;16.77;;;10.65;;
56083;SDS011;41958;52.416;13.428;2022-11-15T14:06:02;19.73;;;11.63;;
56083;SDS011;41958;52.416;13.428;2022-11-15T14:08:28;17.25;;;11.18;;
56083;SDS011;41958;52.416;13.428;2022-11-15T14:11:06;19.02;;;12.63;;
56083;SDS011;41958;52.416;13.428;2022-11-15T14:13:32;19.15;;;12.02;;
56083;SDS011;41958;52.416;13.428;2022-11-15T14:16:17;21.23;;;12.05;;
56083;SDS011;41958;52.416;13.428;2022-11-15T14:18:46;18.88;;;11.98;;
56083;SDS011;41958;52.416;13.428;2022-11-15T14:21:16;18.17;;;11.85;;
56083;SDS011;41958;52.416;13.428;2022-11-15T14:23:42;18.65;;;12.10;;
56083;SDS011;41958;52.416;13.428;2022-11-15T14:26:25;18.52;;;12.10;;
56083;SDS011;41958;52.416;13.428;2022-11-15T14:29:21;18.33;;;11.93;;
56083;SDS011;41958;52.416;13.428;2022-11-15T14:34:45;17.60;;;10.43;;
56083;SDS011;41958;52.416;13.428;2022-11-15T14:37:21;14.93;;;10.85;;
56083;SDS011;41958;52.416;13.428;2022-11-15T14:39:48;16.50;;;11.20;;
56083;SDS011;41958;52.416;13.428;2022-11-15T14:42:14;16.20;;;11.20;;
56083;SDS011;41958;52.416;13.428;2022-11-15T14:44:39;14.40;;;10.48;;
56083;SDS011;41958;52.416;13.428;2022-11-15T14:47:05;16.58;;;10.25;;
56083;SDS011;41958;52.416;13.428;2022-11-15T14:49:30;17.35;;;11.15;;
56083;SDS011;41958;52.416;13.428;2022-11-15T14:51:56;18.77;;;9.88;;
56083;SDS011;41958;52.416;13.428;2022-11-15T14:54:21;18.08;;;11.38;;
56083;SDS011;41958;52.416;13.428;2022-11-15T14:56:46;17.60;;;11.75;;
56083;SDS011;41958;52.416;13.428;2022-11-15T14:59:11;17.48;;;11.27;;
56083;SDS011;41958;52.416;13.428;2022-11-15T15:01:37;19.15;;;11.07;;
56083;SDS011;41958;52.416;13.428;2022-11-15T15:04:02;17.73;;;11.43;;
56083;SDS011;41958;52.416;13.428;2022-11-15T15:06:27;18.83;;;11.52;;
56083;SDS011;41958;52.416;13.428;2022-11-15T15:08:53;18.25;;;11.73;;
56083;SDS011;41958;52.416;13.428;2022-11-15T15:11:28;21.52;;;11.88;;
56083;SDS011;41958;52.416;13.428;2022-11-15T15:13:55;22.10;;;12.65;;
56083;SDS011;41958;52.416;13.428;2022-11-15T15:16:23;17.95;;;11.93;;
56083;SDS011;41958;52.416;13.428;2022-11-15T15:18:49;22.45;;;12.80;;
56083;SDS011;41958;52.416;13.428;2022-11-15T15:21:17;18.92;;;11.73;;
56083;SDS011;41958;52.416;13.428;2022-11-15T15:23:46;25.05;;;13.43;;
56083;SDS011;41958;52.416;13.428;2022-11-15T15:26:11;20.80;;;12.07;;
56083;SDS011;41958;52.416;13.428;2022-11-15T15:28:37;19.67;;;11.80;;
56083;SDS011;41958;52.416;13.428;2022-11-15T15:31:03;17.92;;;11.38;;
56083;SDS011;41958;52.416;13.428;2022-11-15T15:33:28;19.25;;;11.95;;
56083;SDS011;41958;52.416;13.428;2022-11-15T15:35:54;23.25;;;13.07;;
56083;SDS011;41958;52.416;13.428;2022-11-15T15:38:19;25.10;;;14.38;;
56083;SDS011;41958;52.416;13.428;2022-11-15T15:40:44;26.15;;;13.93;;
56083;SDS011;41958;52.416;13.428;2022-11-15T15:43:09;25.85;;;14.70;;
56083;SDS011;41958;52.416;13.428;2022-11-15T15:45:36;29.27;;;14.90;;
56083;SDS011;41958;52.416;13.428;2022-11-15T15:48:12;28.70;;;15.13;;
56083;SDS011;41958;52.416;13.428;2022-11-15T15:50:38;27.65;;;14.82;;